sensor_id;sensor_type;location;lat;lon;timestamp;temperature;humidity
19437;DHT22;9854;50.968;4.168;2023-12-29T00:00:38;11.30;99.90
19437;DHT22;9854;50.968;4.168;2023-12-29T00:03:05;11.40;99.90
19437;DHT22;9854;50.968;4.168;2023-12-29T00:05:30;11.40;99.90
19437;DHT22;9854;50.968;4.168;2023-12-29T00:07:56;11.40;99.90
19437;DHT22;9854;50.968;4.168;2023-12-29T00:10:22;11.40;99.90
19437;DHT22;9854;50.968;4.168;2023-12-29T00:12:47;11.40;99.90
19437;DHT22;9854;50.968;4.168;2023-12-29T00:15:16;11.40;99.90
19437;DHT22;9854;50.968;4.168;2023-12-29T00:17:42;11.30;99.90
19437;DHT22;9854;50.968;4.168;2023-12-29T00:20:10;11.30;99.90
19437;DHT22;9854;50.968;4.168;2023-12-29T00:22:36;11.30;99.90
19437;DHT22;9854;50.968;4.168;2023-12-29T00:25:02;11.30;99.90
19437;DHT22;9854;50.968;4.168;2023-12-29T00:27:28;11.30;99.90
19437;DHT22;9854;50.968;4.168;2023-12-29T00:29:56;11.30;99.90
19437;DHT22;9854;50.968;4.168;2023-12-29T00:32:22;11.40;99.90
19437;DHT22;9854;50.968;4.168;2023-12-29T00:34:47;11.30;99.90
19437;DHT22;9854;50.968;4.168;2023-12-29T00:37:13;11.20;99.90
19437;DHT22;9854;50.968;4.168;2023-12-29T00:39:38;11.20;99.90
19437;DHT22;9854;50.968;4.168;2023-12-29T00:42:07;11.20;99.90
19437;DHT22;9854;50.968;4.168;2023-12-29T00:44:33;11.30;99.90
19437;DHT22;9854;50.968;4.168;2023-12-29T00:46:59;11.30;99.90
19437;DHT22;9854;50.968;4.168;2023-12-29T00:49:25;11.30;99.90
19437;DHT22;9854;50.968;4.168;2023-12-29T00:51:51;11.30;99.90
19437;DHT22;9854;50.968;4.168;2023-12-29T00:54:17;11.30;99.90
19437;DHT22;9854;50.968;4.168;2023-12-29T00:56:49;11.40;99.90
19437;DHT22;9854;50.968;4.168;2023-12-29T00:59:17;11.30;99.90
19437;DHT22;9854;50.968;4.168;2023-12-29T01:01:43;11.30;99.90
19437;DHT22;9854;50.968;4.168;2023-12-29T01:04:10;11.30;99.90
19437;DHT22;9854;50.968;4.168;2023-12-29T01:06:35;11.20;99.90
19437;DHT22;9854;50.968;4.168;2023-12-29T01:09:03;11.30;99.90
19437;DHT22;9854;50.968;4.168;2023-12-29T01:11:29;11.30;99.90
19437;DHT22;9854;50.968;4.168;2023-12-29T01:13:54;11.20;99.90
19437;DHT22;9854;50.968;4.168;2023-12-29T01:16:22;11.20;99.90
19437;DHT22;9854;50.968;4.168;2023-12-29T01:18:48;11.20;99.90
19437;DHT22;9854;50.968;4.168;2023-12-29T01:21:13;11.10;99.90
19437;DHT22;9854;50.968;4.168;2023-12-29T01:23:39;11.10;99.90
19437;DHT22;9854;50.968;4.168;2023-12-29T01:26:04;11.10;99.90
19437;DHT22;9854;50.968;4.168;2023-12-29T01:28:30;11.10;99.90
19437;DHT22;9854;50.968;4.168;2023-12-29T01:30:56;11.10;99.90
19437;DHT22;9854;50.968;4.168;2023-12-29T01:33:21;11.10;99.90
19437;DHT22;9854;50.968;4.168;2023-12-29T01:35:49;11.10;99.90
19437;DHT22;9854;50.968;4.168;2023-12-29T01:38:15;11.10;99.90
19437;DHT22;9854;50.968;4.168;2023-12-29T01:40:47;11.10;99.90
19437;DHT22;9854;50.968;4.168;2023-12-29T01:43:13;11.10;99.90
19437;DHT22;9854;50.968;4.168;2023-12-29T01:45:38;11.10;99.90
19437;DHT22;9854;50.968;4.168;2023-12-29T01:48:05;11.10;99.90
19437;DHT22;9854;50.968;4.168;2023-12-29T01:50:33;11.10;99.90
19437;DHT22;9854;50.968;4.168;2023-12-29T01:52:59;11.10;99.90
19437;DHT22;9854;50.968;4.168;2023-12-29T01:55:28;11.10;99.90
19437;DHT22;9854;50.968;4.168;2023-12-29T01:57:54;11.10;99.90
19437;DHT22;9854;50.968;4.168;2023-12-29T02:00:20;11.10;99.90
19437;DHT22;9854;50.968;4.168;2023-12-29T02:02:46;11.10;99.90
19437;DHT22;9854;50.968;4.168;2023-12-29T02:05:17;11.10;99.90
19437;DHT22;9854;50.968;4.168;2023-12-29T02:07:43;11.10;99.90
19437;DHT22;9854;50.968;4.168;2023-12-29T02:10:11;11.10;99.90
19437;DHT22;9854;50.968;4.168;2023-12-29T02:12:41;11.10;99.90
19437;DHT22;9854;50.968;4.168;2023-12-29T02:15:07;11.10;99.90
19437;DHT22;9854;50.968;4.168;2023-12-29T02:17:41;11.10;99.90
19437;DHT22;9854;50.968;4.168;2023-12-29T02:20:11;11.10;99.90
19437;DHT22;9854;50.968;4.168;2023-12-29T02:22:37;11.10;99.90
19437;DHT22;9854;50.968;4.168;2023-12-29T02:25:06;11.20;99.90
19437;DHT22;9854;50.968;4.168;2023-12-29T02:28:07;11.20;99.90
19437;DHT22;9854;50.968;4.168;2023-12-29T02:30:41;11.20;99.90
19437;DHT22;9854;50.968;4.168;2023-12-29T02:33:12;11.10;99.90
19437;DHT22;9854;50.968;4.168;2023-12-29T02:35:42;11.10;99.90
19437;DHT22;9854;50.968;4.168;2023-12-29T02:38:09;11.00;99.90
19437;DHT22;9854;50.968;4.168;2023-12-29T02:40:37;11.10;99.90
19437;DHT22;9854;50.968;4.168;2023-12-29T02:43:05;11.10;99.90
19437;DHT22;9854;50.968;4.168;2023-12-29T02:45:31;11.00;99.90
19437;DHT22;9854;50.968;4.168;2023-12-29T02:47:57;11.00;99.90
19437;DHT22;9854;50.968;4.168;2023-12-29T02:50:23;11.00;99.90
19437;DHT22;9854;50.968;4.168;2023-12-29T02:52:48;11.10;99.90
19437;DHT22;9854;50.968;4.168;2023-12-29T02:55:18;11.10;99.90
19437;DHT22;9854;50.968;4.168;2023-12-29T02:57:44;11.10;99.90
19437;DHT22;9854;50.968;4.168;2023-12-29T03:00:10;11.00;99.90
19437;DHT22;9854;50.968;4.168;2023-12-29T03:02:36;11.10;99.90
19437;DHT22;9854;50.968;4.168;2023-12-29T03:05:02;11.10;99.90
19437;DHT22;9854;50.968;4.168;2023-12-29T03:07:30;11.00;99.90
19437;DHT22;9854;50.968;4.168;2023-12-29T03:09:56;11.00;99.90
19437;DHT22;9854;50.968;4.168;2023-12-29T03:12:23;11.00;99.90
19437;DHT22;9854;50.968;4.168;2023-12-29T03:14:52;11.10;99.90
19437;DHT22;9854;50.968;4.168;2023-12-29T03:17:17;10.90;99.90
19437;DHT22;9854;50.968;4.168;2023-12-29T03:19:43;10.90;99.90
19437;DHT22;9854;50.968;4.168;2023-12-29T03:22:11;10.90;99.90
19437;DHT22;9854;50.968;4.168;2023-12-29T03:24:41;10.90;99.90
19437;DHT22;9854;50.968;4.168;2023-12-29T03:27:07;10.90;99.90
19437;DHT22;9854;50.968;4.168;2023-12-29T03:29:33;10.80;99.90
19437;DHT22;9854;50.968;4.168;2023-12-29T03:32:01;10.80;99.90
19437;DHT22;9854;50.968;4.168;2023-12-29T03:34:26;10.80;99.90
19437;DHT22;9854;50.968;4.168;2023-12-29T03:36:52;10.80;99.90
19437;DHT22;9854;50.968;4.168;2023-12-29T03:39:20;10.90;99.90
19437;DHT22;9854;50.968;4.168;2023-12-29T03:41:48;10.90;99.90
19437;DHT22;9854;50.968;4.168;2023-12-29T03:44:14;10.80;99.90
19437;DHT22;9854;50.968;4.168;2023-12-29T03:46:42;10.80;99.90
19437;DHT22;9854;50.968;4.168;2023-12-29T03:49:08;10.80;99.90
19437;DHT22;9854;50.968;4.168;2023-12-29T03:51:34;10.80;99.90
19437;DHT22;9854;50.968;4.168;2023-12-29T03:54:00;10.80;99.90
19437;DHT22;9854;50.968;4.168;2023-12-29T03:56:26;10.80;99.90
19437;DHT22;9854;50.968;4.168;2023-12-29T03:58:52;10.90;99.90
19437;DHT22;9854;50.968;4.168;2023-12-29T04:01:20;10.80;99.90
19437;DHT22;9854;50.968;4.168;2023-12-29T04:03:46;10.80;99.90
19437;DHT22;9854;50.968;4.168;2023-12-29T04:06:12;10.90;99.90
19437;DHT22;9854;50.968;4.168;2023-12-29T04:08:40;10.90;99.90
19437;DHT22;9854;50.968;4.168;2023-12-29T04:11:06;10.90;99.90
19437;DHT22;9854;50.968;4.168;2023-12-29T04:13:32;10.80;99.90
19437;DHT22;9854;50.968;4.168;2023-12-29T04:16:00;10.80;99.90
19437;DHT22;9854;50.968;4.168;2023-12-29T04:18:25;10.80;99.90
19437;DHT22;9854;50.968;4.168;2023-12-29T04:20:51;10.80;99.90
19437;DHT22;9854;50.968;4.168;2023-12-29T04:23:17;10.80;99.90
19437;DHT22;9854;50.968;4.168;2023-12-29T04:25:42;10.80;99.90
19437;DHT22;9854;50.968;4.168;2023-12-29T04:28:08;10.70;99.90
19437;DHT22;9854;50.968;4.168;2023-12-29T04:30:36;10.70;99.90
19437;DHT22;9854;50.968;4.168;2023-12-29T04:33:02;10.70;99.90
19437;DHT22;9854;50.968;4.168;2023-12-29T04:35:27;10.70;99.90
19437;DHT22;9854;50.968;4.168;2023-12-29T04:37:53;10.70;99.90
19437;DHT22;9854;50.968;4.168;2023-12-29T04:40:19;10.70;99.90
19437;DHT22;9854;50.968;4.168;2023-12-29T04:42:44;10.80;99.90
19437;DHT22;9854;50.968;4.168;2023-12-29T04:45:13;10.90;99.90
19437;DHT22;9854;50.968;4.168;2023-12-29T04:47:38;10.80;99.90
19437;DHT22;9854;50.968;4.168;2023-12-29T04:50:05;10.80;99.90
19437;DHT22;9854;50.968;4.168;2023-12-29T04:52:36;10.90;99.90
19437;DHT22;9854;50.968;4.168;2023-12-29T04:55:01;10.80;99.90
19437;DHT22;9854;50.968;4.168;2023-12-29T04:57:27;10.80;99.90
19437;DHT22;9854;50.968;4.168;2023-12-29T04:59:55;10.80;99.90
19437;DHT22;9854;50.968;4.168;2023-12-29T05:02:23;10.90;99.90
19437;DHT22;9854;50.968;4.168;2023-12-29T05:04:51;10.90;99.90
19437;DHT22;9854;50.968;4.168;2023-12-29T05:07:19;10.90;99.90
19437;DHT22;9854;50.968;4.168;2023-12-29T05:09:45;10.90;99.90
19437;DHT22;9854;50.968;4.168;2023-12-29T05:12:11;10.80;99.90
19437;DHT22;9854;50.968;4.168;2023-12-29T05:14:41;10.80;99.90
19437;DHT22;9854;50.968;4.168;2023-12-29T05:17:09;10.90;99.90
19437;DHT22;9854;50.968;4.168;2023-12-29T05:19:37;10.90;99.90
19437;DHT22;9854;50.968;4.168;2023-12-29T05:22:05;10.90;99.90
19437;DHT22;9854;50.968;4.168;2023-12-29T05:24:31;10.90;99.90
19437;DHT22;9854;50.968;4.168;2023-12-29T05:26:56;10.90;99.90
19437;DHT22;9854;50.968;4.168;2023-12-29T05:29:24;10.90;99.90
19437;DHT22;9854;50.968;4.168;2023-12-29T05:31:52;11.00;99.90
19437;DHT22;9854;50.968;4.168;2023-12-29T05:34:18;11.00;99.90
19437;DHT22;9854;50.968;4.168;2023-12-29T05:36:46;11.00;99.90
19437;DHT22;9854;50.968;4.168;2023-12-29T05:39:11;11.00;99.90
19437;DHT22;9854;50.968;4.168;2023-12-29T05:41:37;11.00;99.90
19437;DHT22;9854;50.968;4.168;2023-12-29T05:44:05;10.90;99.90
19437;DHT22;9854;50.968;4.168;2023-12-29T05:46:33;11.00;99.90
19437;DHT22;9854;50.968;4.168;2023-12-29T05:48:59;11.00;99.90
19437;DHT22;9854;50.968;4.168;2023-12-29T05:51:29;11.00;99.90
19437;DHT22;9854;50.968;4.168;2023-12-29T05:53:57;11.00;99.90
19437;DHT22;9854;50.968;4.168;2023-12-29T05:56:25;11.10;99.90
19437;DHT22;9854;50.968;4.168;2023-12-29T05:58:50;11.00;99.90
19437;DHT22;9854;50.968;4.168;2023-12-29T06:01:16;11.00;99.90
19437;DHT22;9854;50.968;4.168;2023-12-29T06:03:42;10.90;99.90
19437;DHT22;9854;50.968;4.168;2023-12-29T06:06:07;10.80;99.90
19437;DHT22;9854;50.968;4.168;2023-12-29T06:08:35;10.80;99.90
19437;DHT22;9854;50.968;4.168;2023-12-29T06:11:01;10.80;99.90
19437;DHT22;9854;50.968;4.168;2023-12-29T06:13:28;10.70;99.90
19437;DHT22;9854;50.968;4.168;2023-12-29T06:15:53;10.70;99.90
19437;DHT22;9854;50.968;4.168;2023-12-29T06:18:19;10.70;99.90
19437;DHT22;9854;50.968;4.168;2023-12-29T06:20:45;10.60;99.90
19437;DHT22;9854;50.968;4.168;2023-12-29T06:23:10;10.50;99.90
19437;DHT22;9854;50.968;4.168;2023-12-29T06:25:36;10.40;99.90
19437;DHT22;9854;50.968;4.168;2023-12-29T06:28:02;10.30;99.90
19437;DHT22;9854;50.968;4.168;2023-12-29T06:30:31;10.30;99.90
19437;DHT22;9854;50.968;4.168;2023-12-29T06:32:57;10.30;99.90
19437;DHT22;9854;50.968;4.168;2023-12-29T06:35:25;10.30;99.90
19437;DHT22;9854;50.968;4.168;2023-12-29T06:37:51;10.20;99.90
19437;DHT22;9854;50.968;4.168;2023-12-29T06:40:19;10.20;99.90
19437;DHT22;9854;50.968;4.168;2023-12-29T06:42:45;10.20;99.90
19437;DHT22;9854;50.968;4.168;2023-12-29T06:45:12;10.20;99.90
19437;DHT22;9854;50.968;4.168;2023-12-29T06:47:38;10.10;99.90
19437;DHT22;9854;50.968;4.168;2023-12-29T06:50:04;10.20;99.90
19437;DHT22;9854;50.968;4.168;2023-12-29T06:52:31;10.10;99.90
19437;DHT22;9854;50.968;4.168;2023-12-29T06:55:00;10.10;99.90
19437;DHT22;9854;50.968;4.168;2023-12-29T06:57:26;10.00;99.90
19437;DHT22;9854;50.968;4.168;2023-12-29T06:59:52;10.00;99.90
19437;DHT22;9854;50.968;4.168;2023-12-29T07:02:20;10.00;99.90
19437;DHT22;9854;50.968;4.168;2023-12-29T07:04:46;10.00;99.90
19437;DHT22;9854;50.968;4.168;2023-12-29T07:07:14;10.00;99.90
19437;DHT22;9854;50.968;4.168;2023-12-29T07:09:40;10.00;99.90
19437;DHT22;9854;50.968;4.168;2023-12-29T07:12:06;10.00;99.90
19437;DHT22;9854;50.968;4.168;2023-12-29T07:14:35;10.00;99.90
19437;DHT22;9854;50.968;4.168;2023-12-29T07:17:01;10.00;99.90
19437;DHT22;9854;50.968;4.168;2023-12-29T07:19:29;10.00;99.90
19437;DHT22;9854;50.968;4.168;2023-12-29T07:22:05;10.00;99.90
19437;DHT22;9854;50.968;4.168;2023-12-29T07:24:35;10.00;99.90
19437;DHT22;9854;50.968;4.168;2023-12-29T07:27:01;10.00;99.90
19437;DHT22;9854;50.968;4.168;2023-12-29T07:29:27;10.00;99.90
19437;DHT22;9854;50.968;4.168;2023-12-29T07:31:54;10.00;99.90
19437;DHT22;9854;50.968;4.168;2023-12-29T07:34:22;10.10;99.90
19437;DHT22;9854;50.968;4.168;2023-12-29T07:36:48;10.10;99.90
19437;DHT22;9854;50.968;4.168;2023-12-29T07:39:17;10.10;99.90
19437;DHT22;9854;50.968;4.168;2023-12-29T07:41:43;10.00;99.90
19437;DHT22;9854;50.968;4.168;2023-12-29T07:44:11;10.00;99.90
19437;DHT22;9854;50.968;4.168;2023-12-29T07:46:40;10.10;99.90
19437;DHT22;9854;50.968;4.168;2023-12-29T07:49:09;10.10;99.90
19437;DHT22;9854;50.968;4.168;2023-12-29T07:51:42;10.10;99.90
19437;DHT22;9854;50.968;4.168;2023-12-29T07:54:08;10.10;99.90
19437;DHT22;9854;50.968;4.168;2023-12-29T07:56:34;10.10;99.90
19437;DHT22;9854;50.968;4.168;2023-12-29T07:59:02;10.10;99.90
19437;DHT22;9854;50.968;4.168;2023-12-29T08:01:30;10.10;99.90
19437;DHT22;9854;50.968;4.168;2023-12-29T08:03:56;10.20;99.90
19437;DHT22;9854;50.968;4.168;2023-12-29T08:06:22;10.20;99.90
19437;DHT22;9854;50.968;4.168;2023-12-29T08:08:50;10.30;99.90
19437;DHT22;9854;50.968;4.168;2023-12-29T08:11:16;10.30;99.90
19437;DHT22;9854;50.968;4.168;2023-12-29T08:13:47;10.20;99.90
19437;DHT22;9854;50.968;4.168;2023-12-29T08:16:13;10.20;99.90
19437;DHT22;9854;50.968;4.168;2023-12-29T08:18:39;10.20;99.90
19437;DHT22;9854;50.968;4.168;2023-12-29T08:21:05;10.20;99.90
19437;DHT22;9854;50.968;4.168;2023-12-29T08:23:30;10.30;99.90
19437;DHT22;9854;50.968;4.168;2023-12-29T08:25:57;10.30;99.90
19437;DHT22;9854;50.968;4.168;2023-12-29T08:28:25;10.30;99.90
19437;DHT22;9854;50.968;4.168;2023-12-29T08:30:53;10.30;99.90
19437;DHT22;9854;50.968;4.168;2023-12-29T08:33:19;10.20;99.90
19437;DHT22;9854;50.968;4.168;2023-12-29T08:35:45;10.20;99.90
19437;DHT22;9854;50.968;4.168;2023-12-29T08:38:11;10.20;99.90
19437;DHT22;9854;50.968;4.168;2023-12-29T08:40:37;10.10;99.90
19437;DHT22;9854;50.968;4.168;2023-12-29T08:43:03;10.10;99.90
19437;DHT22;9854;50.968;4.168;2023-12-29T08:45:29;10.10;99.90
19437;DHT22;9854;50.968;4.168;2023-12-29T08:47:55;10.10;99.90
19437;DHT22;9854;50.968;4.168;2023-12-29T08:50:23;10.20;99.90
19437;DHT22;9854;50.968;4.168;2023-12-29T08:52:48;10.30;99.90
19437;DHT22;9854;50.968;4.168;2023-12-29T08:55:14;10.30;99.90
19437;DHT22;9854;50.968;4.168;2023-12-29T08:57:40;10.30;99.90
19437;DHT22;9854;50.968;4.168;2023-12-29T09:00:06;10.30;99.90
19437;DHT22;9854;50.968;4.168;2023-12-29T09:02:32;10.40;99.90
19437;DHT22;9854;50.968;4.168;2023-12-29T09:04:57;10.40;99.90
19437;DHT22;9854;50.968;4.168;2023-12-29T09:07:23;10.40;99.90
19437;DHT22;9854;50.968;4.168;2023-12-29T09:09:48;10.40;99.90
19437;DHT22;9854;50.968;4.168;2023-12-29T09:12:14;10.50;99.90
19437;DHT22;9854;50.968;4.168;2023-12-29T09:14:40;10.50;99.90
19437;DHT22;9854;50.968;4.168;2023-12-29T09:17:07;10.50;99.90
19437;DHT22;9854;50.968;4.168;2023-12-29T09:19:37;10.50;99.90
19437;DHT22;9854;50.968;4.168;2023-12-29T09:22:05;10.50;99.90
19437;DHT22;9854;50.968;4.168;2023-12-29T09:24:33;10.50;99.90
19437;DHT22;9854;50.968;4.168;2023-12-29T09:26:58;10.60;99.90
19437;DHT22;9854;50.968;4.168;2023-12-29T09:29:26;10.50;99.90
19437;DHT22;9854;50.968;4.168;2023-12-29T09:31:52;10.50;99.90
19437;DHT22;9854;50.968;4.168;2023-12-29T09:34:18;10.50;99.90
19437;DHT22;9854;50.968;4.168;2023-12-29T09:36:44;10.50;99.90
19437;DHT22;9854;50.968;4.168;2023-12-29T09:39:09;10.60;99.90
19437;DHT22;9854;50.968;4.168;2023-12-29T09:41:42;10.50;99.90
19437;DHT22;9854;50.968;4.168;2023-12-29T09:44:13;10.40;99.90
19437;DHT22;9854;50.968;4.168;2023-12-29T09:46:39;10.40;99.90
19437;DHT22;9854;50.968;4.168;2023-12-29T09:49:08;10.40;99.90
19437;DHT22;9854;50.968;4.168;2023-12-29T09:51:36;10.30;99.90
19437;DHT22;9854;50.968;4.168;2023-12-29T09:54:07;10.30;99.90
19437;DHT22;9854;50.968;4.168;2023-12-29T09:56:37;10.30;99.90
19437;DHT22;9854;50.968;4.168;2023-12-29T09:59:03;10.30;99.90
19437;DHT22;9854;50.968;4.168;2023-12-29T10:01:29;10.30;99.90
19437;DHT22;9854;50.968;4.168;2023-12-29T10:03:59;10.30;99.90
19437;DHT22;9854;50.968;4.168;2023-12-29T10:06:30;10.20;99.90
19437;DHT22;9854;50.968;4.168;2023-12-29T10:08:57;10.20;99.90
19437;DHT22;9854;50.968;4.168;2023-12-29T10:11:25;10.10;99.90
19437;DHT22;9854;50.968;4.168;2023-12-29T10:13:54;10.20;99.90
19437;DHT22;9854;50.968;4.168;2023-12-29T10:16:41;10.30;99.90
19437;DHT22;9854;50.968;4.168;2023-12-29T10:22:21;10.40;99.90
19437;DHT22;9854;50.968;4.168;2023-12-29T10:24:47;10.50;99.90
19437;DHT22;9854;50.968;4.168;2023-12-29T10:27:13;10.60;99.90
19437;DHT22;9854;50.968;4.168;2023-12-29T10:29:41;10.60;99.90
19437;DHT22;9854;50.968;4.168;2023-12-29T10:32:07;10.60;99.90
19437;DHT22;9854;50.968;4.168;2023-12-29T10:34:33;10.70;99.90
19437;DHT22;9854;50.968;4.168;2023-12-29T10:36:59;10.70;99.90
19437;DHT22;9854;50.968;4.168;2023-12-29T10:39:28;10.80;99.90
19437;DHT22;9854;50.968;4.168;2023-12-29T10:44:37;10.90;99.90
19437;DHT22;9854;50.968;4.168;2023-12-29T10:47:10;11.00;99.90
19437;DHT22;9854;50.968;4.168;2023-12-29T10:49:41;11.00;99.90
19437;DHT22;9854;50.968;4.168;2023-12-29T10:52:13;11.00;99.90
19437;DHT22;9854;50.968;4.168;2023-12-29T10:54:44;11.10;99.90
19437;DHT22;9854;50.968;4.168;2023-12-29T10:57:13;11.10;99.90
19437;DHT22;9854;50.968;4.168;2023-12-29T10:59:39;11.10;99.90
19437;DHT22;9854;50.968;4.168;2023-12-29T11:02:05;11.10;99.90
19437;DHT22;9854;50.968;4.168;2023-12-29T11:04:33;11.00;99.90
19437;DHT22;9854;50.968;4.168;2023-12-29T11:06:59;11.10;99.90
19437;DHT22;9854;50.968;4.168;2023-12-29T11:09:34;11.10;99.90
19437;DHT22;9854;50.968;4.168;2023-12-29T11:12:02;11.10;99.90
19437;DHT22;9854;50.968;4.168;2023-12-29T11:14:31;11.10;99.90
19437;DHT22;9854;50.968;4.168;2023-12-29T11:17:00;11.20;99.90
19437;DHT22;9854;50.968;4.168;2023-12-29T11:19:27;11.30;99.90
19437;DHT22;9854;50.968;4.168;2023-12-29T11:21:54;11.40;99.90
19437;DHT22;9854;50.968;4.168;2023-12-29T11:24:23;11.30;99.90
19437;DHT22;9854;50.968;4.168;2023-12-29T11:26:53;11.30;99.90
19437;DHT22;9854;50.968;4.168;2023-12-29T11:29:19;11.30;99.90
19437;DHT22;9854;50.968;4.168;2023-12-29T11:31:45;11.40;99.90
19437;DHT22;9854;50.968;4.168;2023-12-29T11:34:16;11.40;99.90
19437;DHT22;9854;50.968;4.168;2023-12-29T11:36:46;11.30;99.90
19437;DHT22;9854;50.968;4.168;2023-12-29T11:39:25;11.30;99.90
19437;DHT22;9854;50.968;4.168;2023-12-29T11:42:11;11.40;99.90
19437;DHT22;9854;50.968;4.168;2023-12-29T11:44:38;11.40;99.90
19437;DHT22;9854;50.968;4.168;2023-12-29T11:47:04;11.40;99.90
19437;DHT22;9854;50.968;4.168;2023-12-29T11:49:59;11.40;99.90
19437;DHT22;9854;50.968;4.168;2023-12-29T11:52:34;11.30;99.90
19437;DHT22;9854;50.968;4.168;2023-12-29T11:55:13;11.40;99.90
19437;DHT22;9854;50.968;4.168;2023-12-29T11:57:40;11.20;99.90
19437;DHT22;9854;50.968;4.168;2023-12-29T12:00:07;11.20;99.90
19437;DHT22;9854;50.968;4.168;2023-12-29T12:02:33;11.20;99.90
19437;DHT22;9854;50.968;4.168;2023-12-29T12:04:59;11.10;99.90
19437;DHT22;9854;50.968;4.168;2023-12-29T12:12:46;11.00;99.90
19437;DHT22;9854;50.968;4.168;2023-12-29T12:17:53;10.90;99.90
19437;DHT22;9854;50.968;4.168;2023-12-29T12:20:18;10.90;99.90
19437;DHT22;9854;50.968;4.168;2023-12-29T12:22:44;10.80;99.90
19437;DHT22;9854;50.968;4.168;2023-12-29T12:25:12;10.70;99.90
19437;DHT22;9854;50.968;4.168;2023-12-29T12:27:38;10.70;99.90
19437;DHT22;9854;50.968;4.168;2023-12-29T12:30:07;10.80;99.90
19437;DHT22;9854;50.968;4.168;2023-12-29T12:32:35;10.80;99.90
19437;DHT22;9854;50.968;4.168;2023-12-29T12:35:01;10.70;99.90
19437;DHT22;9854;50.968;4.168;2023-12-29T12:37:29;10.70;99.90
19437;DHT22;9854;50.968;4.168;2023-12-29T12:39:55;10.70;99.90
19437;DHT22;9854;50.968;4.168;2023-12-29T12:42:22;10.60;99.90
19437;DHT22;9854;50.968;4.168;2023-12-29T12:44:56;10.60;99.90
19437;DHT22;9854;50.968;4.168;2023-12-29T12:47:52;10.60;99.90
19437;DHT22;9854;50.968;4.168;2023-12-29T12:50:19;10.60;99.90
19437;DHT22;9854;50.968;4.168;2023-12-29T12:52:47;10.60;99.90
19437;DHT22;9854;50.968;4.168;2023-12-29T12:55:13;10.60;99.90
19437;DHT22;9854;50.968;4.168;2023-12-29T12:57:41;10.60;99.90
19437;DHT22;9854;50.968;4.168;2023-12-29T13:00:07;10.60;99.90
19437;DHT22;9854;50.968;4.168;2023-12-29T13:02:35;10.70;99.90
19437;DHT22;9854;50.968;4.168;2023-12-29T13:05:03;10.70;99.90
19437;DHT22;9854;50.968;4.168;2023-12-29T13:07:34;10.70;99.90
19437;DHT22;9854;50.968;4.168;2023-12-29T13:10:01;10.80;99.90
19437;DHT22;9854;50.968;4.168;2023-12-29T13:12:27;10.80;99.90
19437;DHT22;9854;50.968;4.168;2023-12-29T13:14:53;10.80;99.90
19437;DHT22;9854;50.968;4.168;2023-12-29T13:17:19;10.80;99.90
19437;DHT22;9854;50.968;4.168;2023-12-29T13:19:56;10.90;99.90
19437;DHT22;9854;50.968;4.168;2023-12-29T13:22:23;10.90;99.90
19437;DHT22;9854;50.968;4.168;2023-12-29T13:24:51;10.70;99.90
19437;DHT22;9854;50.968;4.168;2023-12-29T13:27:20;10.70;99.90
19437;DHT22;9854;50.968;4.168;2023-12-29T13:29:47;10.70;99.90
19437;DHT22;9854;50.968;4.168;2023-12-29T13:32:21;10.80;99.90
19437;DHT22;9854;50.968;4.168;2023-12-29T13:35:21;10.90;99.90
19437;DHT22;9854;50.968;4.168;2023-12-29T13:38:08;11.00;99.90
19437;DHT22;9854;50.968;4.168;2023-12-29T13:40:44;11.10;99.90
19437;DHT22;9854;50.968;4.168;2023-12-29T13:43:14;11.10;99.90
19437;DHT22;9854;50.968;4.168;2023-12-29T13:45:44;11.10;99.90
19437;DHT22;9854;50.968;4.168;2023-12-29T13:48:10;11.20;99.90
19437;DHT22;9854;50.968;4.168;2023-12-29T13:50:37;11.20;99.90
19437;DHT22;9854;50.968;4.168;2023-12-29T13:53:02;11.20;99.90
19437;DHT22;9854;50.968;4.168;2023-12-29T13:55:28;11.10;99.90
19437;DHT22;9854;50.968;4.168;2023-12-29T13:57:54;11.10;99.90
19437;DHT22;9854;50.968;4.168;2023-12-29T14:00:20;11.00;99.90
19437;DHT22;9854;50.968;4.168;2023-12-29T14:08:45;11.10;99.90
19437;DHT22;9854;50.968;4.168;2023-12-29T14:10:46;11.00;99.90
19437;DHT22;9854;50.968;4.168;2023-12-29T14:13:19;11.10;99.90
19437;DHT22;9854;50.968;4.168;2023-12-29T14:15:46;11.00;99.90
19437;DHT22;9854;50.968;4.168;2023-12-29T14:20:46;11.10;99.90
19437;DHT22;9854;50.968;4.168;2023-12-29T14:23:13;11.10;99.90
19437;DHT22;9854;50.968;4.168;2023-12-29T14:25:39;11.10;99.90
19437;DHT22;9854;50.968;4.168;2023-12-29T14:28:16;11.10;99.90
19437;DHT22;9854;50.968;4.168;2023-12-29T14:30:42;11.10;99.90
19437;DHT22;9854;50.968;4.168;2023-12-29T14:33:11;11.20;99.90
19437;DHT22;9854;50.968;4.168;2023-12-29T14:35:36;11.20;99.90
19437;DHT22;9854;50.968;4.168;2023-12-29T14:38:03;11.20;99.90
19437;DHT22;9854;50.968;4.168;2023-12-29T14:40:31;11.30;99.90
19437;DHT22;9854;50.968;4.168;2023-12-29T14:43:04;11.30;99.90
19437;DHT22;9854;50.968;4.168;2023-12-29T14:45:29;11.30;99.90
19437;DHT22;9854;50.968;4.168;2023-12-29T14:47:58;11.30;99.90
19437;DHT22;9854;50.968;4.168;2023-12-29T14:50:25;11.40;99.90
19437;DHT22;9854;50.968;4.168;2023-12-29T14:52:51;11.40;99.90
19437;DHT22;9854;50.968;4.168;2023-12-29T14:55:17;11.30;99.90
19437;DHT22;9854;50.968;4.168;2023-12-29T14:57:42;11.30;99.90
19437;DHT22;9854;50.968;4.168;2023-12-29T15:00:10;11.30;99.90
19437;DHT22;9854;50.968;4.168;2023-12-29T15:02:36;11.30;99.90
19437;DHT22;9854;50.968;4.168;2023-12-29T15:05:02;11.30;99.90
19437;DHT22;9854;50.968;4.168;2023-12-29T15:07:28;11.30;99.90
19437;DHT22;9854;50.968;4.168;2023-12-29T15:09:56;11.30;99.90
19437;DHT22;9854;50.968;4.168;2023-12-29T15:12:22;11.30;99.90
19437;DHT22;9854;50.968;4.168;2023-12-29T15:14:48;11.30;99.90
19437;DHT22;9854;50.968;4.168;2023-12-29T15:17:14;11.30;99.90
19437;DHT22;9854;50.968;4.168;2023-12-29T15:19:39;11.30;99.90
19437;DHT22;9854;50.968;4.168;2023-12-29T15:22:07;11.30;99.90
19437;DHT22;9854;50.968;4.168;2023-12-29T15:24:36;11.30;99.90
19437;DHT22;9854;50.968;4.168;2023-12-29T15:27:01;11.30;99.90
19437;DHT22;9854;50.968;4.168;2023-12-29T15:29:29;11.30;99.90
19437;DHT22;9854;50.968;4.168;2023-12-29T15:31:57;11.30;99.90
19437;DHT22;9854;50.968;4.168;2023-12-29T15:34:27;11.20;99.90
19437;DHT22;9854;50.968;4.168;2023-12-29T15:36:52;11.20;99.90
19437;DHT22;9854;50.968;4.168;2023-12-29T15:39:18;11.40;99.90
19437;DHT22;9854;50.968;4.168;2023-12-29T15:41:44;11.50;99.90
19437;DHT22;9854;50.968;4.168;2023-12-29T15:44:10;11.40;99.90
19437;DHT22;9854;50.968;4.168;2023-12-29T15:46:37;11.30;99.90
19437;DHT22;9854;50.968;4.168;2023-12-29T15:49:03;11.30;99.90
19437;DHT22;9854;50.968;4.168;2023-12-29T15:51:29;11.30;99.90
19437;DHT22;9854;50.968;4.168;2023-12-29T15:53:55;11.40;99.90
19437;DHT22;9854;50.968;4.168;2023-12-29T15:56:21;11.40;99.90
19437;DHT22;9854;50.968;4.168;2023-12-29T15:58:47;11.40;99.90
19437;DHT22;9854;50.968;4.168;2023-12-29T16:01:23;11.40;99.90
19437;DHT22;9854;50.968;4.168;2023-12-29T16:03:52;11.40;99.90
19437;DHT22;9854;50.968;4.168;2023-12-29T16:06:21;11.30;99.90
19437;DHT22;9854;50.968;4.168;2023-12-29T16:08:47;11.30;99.90